Time;durP1;ratioP1;P1;durP2;ratioP2;P2;SDS_P1;SDS_P2;PMS_P1;PMS_P2;Temp;Humidity;BMP_temperature;BMP_pressure;BME280_temperature;BME280_humidity;BME280_pressure;Samples;Min_cycle;Max_cycle;Signal;HPM_P1;HPM_P2
2023/12/02 00:02:00;;;;;;;6.10;4.30;;;;;;;9.66;60.88;101016.50;5033367;28;20026;-54
2023/12/02 00:04:25;;;;;;;6.85;4.35;;;;;;;9.67;61.02;101017.34;5031376;28;20486;-55
2023/12/02 00:06:50;;;;;;;4.85;4.10;;;;;;;9.65;60.78;101003.28;5033029;28;20033;-54
2023/12/02 00:09:16;;;;;;;5.78;3.90;;;;;;;9.66;60.98;101005.00;5029926;28;20061;-54
2023/12/02 00:11:42;;;;;;;6.07;3.90;;;;;;;9.65;60.92;100998.81;5030348;28;20033;-54
2023/12/02 00:14:07;;;;;;;5.72;3.95;;;;;;;9.64;60.97;101007.75;5027861;28;20038;-55
2023/12/02 00:16:33;;;;;;;6.40;3.88;;;;;;;9.64;60.84;101015.72;5033135;28;20064;-55
2023/12/02 00:18:58;;;;;;;5.43;4.03;;;;;;;9.64;60.83;101005.09;5031046;28;20405;-55
2023/12/02 00:21:23;;;;;;;5.15;3.63;;;;;;;9.65;61.10;101008.59;5028900;28;20038;-55
2023/12/02 00:23:49;;;;;;;5.40;3.88;;;;;;;9.64;60.99;101005.09;5028360;28;20502;-55
2023/12/02 00:26:14;;;;;;;5.03;3.78;;;;;;;9.63;60.89;100998.03;5029222;28;20040;-54
2023/12/02 00:28:39;;;;;;;5.38;4.00;;;;;;;9.64;60.75;101009.56;5029217;28;20068;-55
2023/12/02 00:31:05;;;;;;;5.53;3.70;;;;;;;9.64;60.81;101010.41;5028840;28;20058;-54
2023/12/02 00:33:31;;;;;;;4.60;3.55;;;;;;;9.64;60.81;101001.59;5028994;28;20037;-55
2023/12/02 00:35:56;;;;;;;6.28;4.32;;;;;;;9.63;60.91;101005.19;5029137;28;20041;-54
2023/12/02 00:38:22;;;;;;;4.65;3.25;;;;;;;9.63;60.75;101000.69;5029586;28;20120;-54
2023/12/02 00:40:47;;;;;;;4.82;3.97;;;;;;;9.63;60.92;101005.19;5028575;28;20533;-54
2023/12/02 00:43:12;;;;;;;5.97;3.95;;;;;;;9.62;60.65;101004.31;5029242;28;20061;-54
2023/12/02 00:45:38;;;;;;;7.05;4.30;;;;;;;9.62;60.93;101014.97;5029635;28;20368;-54
2023/12/02 00:48:03;;;;;;;6.65;3.95;;;;;;;9.61;60.90;101005.25;5031816;28;20052;-55
2023/12/02 00:50:29;;;;;;;4.57;3.40;;;;;;;9.62;60.85;101006.97;5032203;28;20075;-54
2023/12/02 00:52:54;;;;;;;5.10;3.88;;;;;;;9.61;60.58;100999.94;5029689;28;20116;-54
2023/12/02 00:55:20;;;;;;;5.97;3.88;;;;;;;9.61;60.70;101007.91;5028426;28;20068;-54
2023/12/02 00:57:45;;;;;;;5.30;3.90;;;;;;;9.62;60.84;101006.97;5029039;28;20029;-55
2023/12/02 01:00:11;;;;;;;5.25;3.40;;;;;;;9.62;60.84;101001.66;5029499;28;20045;-54
2023/12/02 01:02:36;;;;;;;4.82;3.13;;;;;;;9.61;60.73;101012.38;5028341;28;20054;-54
2023/12/02 01:05:02;;;;;;;5.32;3.80;;;;;;;9.60;60.80;101006.22;5029750;28;20076;-55
2023/12/02 01:07:28;;;;;;;6.18;3.80;;;;;;;9.61;60.65;101009.72;5028286;28;20025;-54
2023/12/02 01:09:53;;;;;;;5.68;3.65;;;;;;;9.61;60.92;100996.44;5030646;28;20371;-54
2023/12/02 01:12:18;;;;;;;5.50;3.95;;;;;;;9.58;60.60;100993.00;5026575;28;20112;-54
2023/12/02 01:14:44;;;;;;;4.25;3.42;;;;;;;9.59;60.87;100991.19;5027734;28;20072;-54
2023/12/02 01:17:10;;;;;;;4.72;3.53;;;;;;;9.59;60.63;100994.75;5028743;28;20037;-54
2023/12/02 01:19:35;;;;;;;6.18;4.28;;;;;;;9.58;60.74;100993.00;5029280;28;20471;-54
2023/12/02 01:22:00;;;;;;;5.18;3.70;;;;;;;9.58;60.60;100993.00;5027914;28;20037;-55
2023/12/02 01:24:26;;;;;;;5.40;3.92;;;;;;;9.57;60.49;100988.63;5028787;28;20391;-54
2023/12/02 01:26:51;;;;;;;5.50;3.78;;;;;;;9.58;60.59;100992.16;5031839;28;20025;-54
2023/12/02 01:29:17;;;;;;;5.22;3.60;;;;;;;9.57;60.62;100988.63;5028205;28;20466;-55
2023/12/02 01:31:43;;;;;;;5.95;4.22;;;;;;;9.57;60.62;100988.63;5028708;28;20041;-54
2023/12/02 01:34:08;;;;;;;4.95;3.60;;;;;;;9.56;60.51;100989.59;5029300;28;20107;-54
2023/12/02 01:36:33;;;;;;;5.68;3.88;;;;;;;9.56;60.37;100997.56;5028345;28;20368;-55
2023/12/02 01:38:59;;;;;;;5.78;4.05;;;;;;;9.56;60.70;101004.69;5030057;28;20048;-54
2023/12/02 01:41:24;;;;;;;5.90;4.22;;;;;;;9.56;60.48;101008.19;5027770;28;20033;-54
2023/12/02 01:43:50;;;;;;;4.63;3.65;;;;;;;9.56;60.52;101012.66;5028610;28;20132;-54
2023/12/02 01:46:15;;;;;;;6.15;4.60;;;;;;;9.56;60.68;101020.63;5028985;28;20033;-55
2023/12/02 01:48:41;;;;;;;6.38;4.05;;;;;;;9.57;60.53;101019.66;5033177;28;20112;-54
2023/12/02 01:51:07;;;;;;;5.72;3.95;;;;;;;9.55;60.66;101029.53;5031846;28;20053;-54
2023/12/02 01:53:32;;;;;;;6.07;3.92;;;;;;;9.55;60.60;101025.06;5028774;28;20037;-54
2023/12/02 01:55:58;;;;;;;6.45;3.92;;;;;;;9.55;60.38;101026.88;5027523;28;20526;-55
2023/12/02 01:58:23;;;;;;;6.20;4.13;;;;;;;9.54;60.47;101027.84;5031048;28;20112;-54
2023/12/02 02:00:48;;;;;;;6.20;3.92;;;;;;;9.53;60.50;101019.00;5027099;28;20107;-54
2023/12/02 02:03:14;;;;;;;5.15;3.78;;;;;;;9.53;60.46;101026.09;5027387;28;20056;-54
2023/12/02 02:05:39;;;;;;;6.75;4.45;;;;;;;9.53;60.32;101036.75;5028351;28;20036;-54
2023/12/02 02:08:05;;;;;;;4.93;3.63;;;;;;;9.52;60.36;101032.34;5027894;28;20108;-54
2023/12/02 02:10:30;;;;;;;5.70;3.88;;;;;;;9.52;60.16;101027.03;5027818;28;20387;-55
2023/12/02 02:12:56;;;;;;;7.13;4.20;;;;;;;9.53;60.39;101034.09;5026908;28;20443;-55
2023/12/02 02:15:21;;;;;;;5.22;3.90;;;;;;;9.51;60.27;101023.53;5030023;28;20045;-55
2023/12/02 02:17:47;;;;;;;5.75;3.92;;;;;;;9.52;60.38;101021.72;5027631;28;20037;-54
2023/12/02 02:20:12;;;;;;;5.32;3.58;;;;;;;9.51;60.45;101023.53;5028380;28;20087;-54
2023/12/02 02:22:38;;;;;;;5.22;3.50;;;;;;;9.51;60.22;101023.53;5028087;28;20149;-54
2023/12/02 02:25:04;;;;;;;5.50;4.13;;;;;;;9.51;60.13;101025.34;5031001;28;20380;-54
2023/12/02 02:27:31;;;;;;;6.90;4.63;;;;;;;9.50;60.21;101024.50;5028815;28;20041;-55
2023/12/02 02:29:57;;;;;;;4.93;3.70;;;;;;;9.50;60.24;101026.28;5027337;28;20037;-55
2023/12/02 02:32:22;;;;;;;5.00;3.92;;;;;;;9.50;60.09;101020.97;5028753;28;20371;-54
2023/12/02 02:34:48;;;;;;;6.15;4.07;;;;;;;9.51;60.40;101025.34;5031042;28;20030;-54
2023/12/02 02:37:14;;;;;;;5.40;4.40;;;;;;;9.50;60.33;101020.97;5027627;28;20030;-55
2023/12/02 02:39:39;;;;;;;7.22;4.53;;;;;;;9.50;60.12;101032.47;5028270;28;20041;-54
2023/12/02 02:42:06;;;;;;;6.75;4.47;;;;;;;9.49;60.13;101028.09;5027120;28;20032;-55
2023/12/02 02:44:38;;;;;;;6.30;4.00;;;;;;;9.48;60.16;101023.72;5022310;28;20045;-54
2023/12/02 02:47:04;;;;;;;5.55;3.80;;;;;;;9.48;60.16;101031.69;5026824;28;20033;-54
2023/12/02 02:49:30;;;;;;;5.22;3.72;;;;;;;9.47;60.04;101042.41;5027133;28;20195;-54
2023/12/02 02:51:55;;;;;;;5.68;4.13;;;;;;;9.49;60.25;101028.09;5030697;28;20384;-54
2023/12/02 02:54:21;;;;;;;6.13;4.38;;;;;;;9.48;60.07;101037.00;5030621;28;20088;-55
2023/12/02 02:56:47;;;;;;;5.75;3.85;;;;;;;9.49;60.01;101037.88;5027104;28;20113;-54
2023/12/02 02:59:12;;;;;;;6.05;4.13;;;;;;;9.48;60.14;101049.44;5027429;28;20052;-54
2023/12/02 03:01:42;;;;;;;5.30;4.22;;;;;;;9.47;60.09;101048.56;5024997;28;20096;-54
2023/12/02 03:04:08;;;;;;;6.32;4.65;;;;;;;9.47;59.98;101053.88;5022691;28;20042;-55
2023/12/02 03:06:34;;;;;;;6.70;4.20;;;;;;;9.46;60.08;101043.34;5025537;28;20214;-55
2023/12/02 03:08:59;;;;;;;5.80;3.95;;;;;;;9.46;59.96;101051.31;5026925;28;20032;-55
2023/12/02 03:11:24;;;;;;;5.05;3.92;;;;;;;9.47;60.10;101058.34;5028682;28;20488;-54
2023/12/02 03:13:50;;;;;;;6.30;4.45;;;;;;;9.46;60.19;101061.94;5029937;28;20044;-55
2023/12/02 03:16:15;;;;;;;5.63;3.97;;;;;;;9.46;59.89;101059.28;5030476;28;20029;-54
2023/12/02 03:18:40;;;;;;;6.03;4.43;;;;;;;9.46;59.83;101061.94;5031255;28;20092;-55
2023/12/02 03:21:06;;;;;;;5.53;4.35;;;;;;;9.45;59.88;101050.47;5027430;28;20041;-54
2023/12/02 03:23:31;;;;;;;6.38;4.13;;;;;;;9.45;59.95;101049.63;5033859;28;20060;-55
2023/12/02 03:25:57;;;;;;;7.32;4.55;;;;;;;9.45;59.78;101057.59;5030977;28;20041;-55
2023/12/02 03:28:23;;;;;;;5.38;3.72;;;;;;;9.44;59.91;101045.22;5028727;28;20035;-55
2023/12/02 03:30:49;;;;;;;6.00;4.53;;;;;;;9.44;59.83;101047.88;5030542;28;20383;-54
2023/12/02 03:33:14;;;;;;;6.75;4.53;;;;;;;9.44;59.94;101047.88;5031127;28;20038;-54
2023/12/02 03:35:39;;;;;;;5.70;4.07;;;;;;;9.43;59.79;101044.38;5030397;28;20045;-55
2023/12/02 03:38:05;;;;;;;4.97;4.15;;;;;;;9.43;59.89;101043.53;5027620;28;20034;-55
2023/12/02 03:40:30;;;;;;;6.68;4.28;;;;;;;9.44;59.62;101050.53;5033514;28;20159;-54
2023/12/02 03:42:55;;;;;;;5.13;3.83;;;;;;;9.42;59.84;101042.66;5030087;28;20128;-54
2023/12/02 03:45:21;;;;;;;5.32;4.35;;;;;;;9.44;59.74;101042.56;5026214;28;20069;-54
2023/12/02 03:47:47;;;;;;;6.55;4.60;;;;;;;9.42;59.78;101055.94;5033389;28;20037;-54
2023/12/02 03:50:12;;;;;;;6.18;4.05;;;;;;;9.42;59.83;101061.25;5032580;28;20087;-55
2023/12/02 03:52:38;;;;;;;5.25;3.85;;;;;;;9.42;59.75;101073.69;5030543;28;20025;-55
2023/12/02 03:55:03;;;;;;;5.88;4.10;;;;;;;9.42;59.80;101044.47;5029580;28;20083;-54
2023/12/02 03:57:29;;;;;;;5.63;4.07;;;;;;;9.42;59.73;101068.38;5032671;28;20049;-54
2023/12/02 03:59:54;;;;;;;6.57;4.43;;;;;;;9.42;59.62;101074.53;5031172;28;20514;-54
2023/12/02 04:02:20;;;;;;;5.68;4.22;;;;;;;9.42;59.90;101055.09;5032810;28;20048;-53
2023/12/02 04:04:46;;;;;;;6.10;4.10;;;;;;;9.40;59.70;101068.47;5029874;28;20034;-54
2023/12/02 04:07:11;;;;;;;5.80;4.50;;;;;;;9.41;59.65;101066.69;5030601;28;20040;-55
2023/12/02 04:09:36;;;;;;;5.53;4.22;;;;;;;9.41;59.59;101077.31;5029181;28;20029;-55
2023/12/02 04:12:02;;;;;;;6.22;4.35;;;;;;;9.41;59.66;101077.31;5033162;28;20483;-54
2023/12/02 04:14:27;;;;;;;4.80;3.60;;;;;;;9.39;59.73;101072.94;5030095;28;20037;-54
2023/12/02 04:16:53;;;;;;;4.95;3.75;;;;;;;9.40;59.69;101081.75;5032929;28;20482;-54
2023/12/02 04:19:18;;;;;;;5.72;4.50;;;;;;;9.39;59.72;101082.69;5033287;28;20041;-54
2023/12/02 04:21:47;;;;;;;5.95;4.30;;;;;;;9.41;59.57;101087.94;5030109;28;20036;-54
2023/12/02 04:24:13;;;;;;;5.88;3.97;;;;;;;9.38;59.72;101097.75;5028571;28;20037;-55
2023/12/02 04:26:39;;;;;;;5.72;3.92;;;;;;;9.38;59.75;101097.75;5029859;28;20029;-54
2023/12/02 04:29:05;;;;;;;6.65;4.65;;;;;;;9.38;59.64;101105.75;5028737;28;20037;-55
2023/12/02 04:31:30;;;;;;;4.45;3.45;;;;;;;9.38;59.67;101097.75;5028951;28;20487;-55
2023/12/02 04:33:56;;;;;;;5.95;4.03;;;;;;;9.37;59.55;101096.06;5029889;28;20044;-54
2023/12/02 04:36:21;;;;;;;5.40;4.03;;;;;;;9.39;59.68;101098.66;5032643;28;20083;-55
2023/12/02 04:38:46;;;;;;;6.70;4.57;;;;;;;9.37;59.67;101096.06;5029291;28;20060;-55
2023/12/02 04:41:12;;;;;;;5.90;4.30;;;;;;;9.38;59.66;101096.91;5030063;28;20116;-55
2023/12/02 04:43:37;;;;;;;6.13;4.25;;;;;;;9.37;59.59;101090.75;5028639;28;20404;-54
2023/12/02 04:46:05;;;;;;;5.22;3.60;;;;;;;9.37;59.67;101095.22;5032571;28;20041;-55
2023/12/02 04:48:31;;;;;;;5.63;4.18;;;;;;;9.36;59.96;101097.00;5028006;28;20041;-55
2023/12/02 04:50:56;;;;;;;5.60;3.60;;;;;;;9.38;59.69;101099.56;5032324;28;20479;-55
2023/12/02 04:53:21;;;;;;;4.47;3.60;;;;;;;9.36;59.52;101097.00;5029329;28;20042;-54
2023/12/02 04:55:47;;;;;;;7.32;4.68;;;;;;;9.35;59.59;101092.63;5031186;28;20037;-54
2023/12/02 04:58:12;;;;;;;5.28;4.00;;;;;;;9.35;59.52;101089.97;5029094;28;20029;-54
2023/12/02 05:00:38;;;;;;;6.60;4.35;;;;;;;9.36;59.59;101098.81;5027453;28;20037;-55
2023/12/02 05:03:03;;;;;;;6.03;4.20;;;;;;;9.36;59.55;101106.78;5024790;28;20195;-54
2023/12/02 05:05:29;;;;;;;5.82;4.43;;;;;;;9.35;59.63;101113.06;5027978;28;20549;-54
2023/12/02 05:07:54;;;;;;;5.68;4.13;;;;;;;9.35;59.66;101108.59;5031861;28;20414;-54
2023/12/02 05:10:19;;;;;;;4.95;3.88;;;;;;;9.35;59.43;101107.75;5028145;28;20059;-54
2023/12/02 05:12:45;;;;;;;5.80;3.92;;;;;;;9.35;59.30;101113.91;5029222;28;20550;-54
2023/12/02 05:15:11;;;;;;;5.25;4.00;;;;;;;9.35;59.53;101107.75;5030036;28;20036;-54
2023/12/02 05:17:36;;;;;;;5.90;4.05;;;;;;;9.34;59.61;101117.47;5033203;28;20037;-55
2023/12/02 05:20:02;;;;;;;6.90;3.97;;;;;;;9.35;59.64;101115.72;5028679;28;20064;-55
2023/12/02 05:22:28;;;;;;;4.78;3.95;;;;;;;9.34;59.67;101122.78;5029450;28;20060;-54
2023/12/02 05:24:53;;;;;;;6.80;4.15;;;;;;;9.33;59.46;101131.72;5028317;28;20468;-55
2023/12/02 05:27:18;;;;;;;5.93;4.43;;;;;;;9.34;59.45;101130.78;5029283;28;20091;-54
2023/12/02 05:29:44;;;;;;;5.35;3.90;;;;;;;9.34;59.54;101128.13;5028375;28;20033;-54
2023/12/02 05:32:10;;;;;;;5.38;3.70;;;;;;;9.34;59.57;101128.13;5032044;28;20033;-54
2023/12/02 05:34:35;;;;;;;6.05;4.13;;;;;;;9.33;59.40;101122.91;5028714;28;20444;-54
2023/12/02 05:37:00;;;;;;;5.32;3.70;;;;;;;9.33;59.40;101121.09;5028349;28;20087;-54
2023/12/02 05:39:26;;;;;;;5.90;4.00;;;;;;;9.33;59.30;101109.63;5031932;28;20083;-54
2023/12/02 05:41:51;;;;;;;5.25;3.67;;;;;;;9.32;59.33;101119.38;5033101;28;20082;-54
2023/12/02 05:44:17;;;;;;;4.97;3.90;;;;;;;9.33;59.59;101118.44;5032238;28;20033;-55
2023/12/02 05:46:43;;;;;;;5.00;3.78;;;;;;;9.32;59.63;101132.66;5031513;28;20467;-55
2023/12/02 05:49:08;;;;;;;4.60;3.63;;;;;;;9.33;59.43;101122.91;5025086;28;20045;-54
2023/12/02 05:51:38;;;;;;;5.47;3.90;;;;;;;9.32;59.35;101140.63;5031629;28;20420;-54
2023/12/02 05:54:06;;;;;;;4.50;3.40;;;;;;;9.30;59.38;101142.50;5025198;28;20033;-55
2023/12/02 05:56:31;;;;;;;5.55;3.88;;;;;;;9.31;59.49;101154.88;5027683;28;20044;-54
2023/12/02 05:58:56;;;;;;;4.80;3.40;;;;;;;9.31;59.35;101149.56;5028138;28;20072;-54
2023/12/02 06:01:22;;;;;;;4.53;3.60;;;;;;;9.31;59.26;101154.00;5030942;28;20048;-54
2023/12/02 06:03:48;;;;;;;4.53;3.53;;;;;;;9.31;59.31;101154.00;5031557;28;20045;-55
2023/12/02 06:06:14;;;;;;;4.70;3.92;;;;;;;9.30;59.35;101149.63;5023072;28;20144;-55
2023/12/02 06:08:40;;;;;;;5.43;3.80;;;;;;;9.30;59.20;101153.13;5031415;28;20104;-54
2023/12/02 06:11:06;;;;;;;4.20;3.38;;;;;;;9.29;59.16;101146.13;5027779;28;20488;-55
2023/12/02 06:13:31;;;;;;;7.90;4.07;;;;;;;9.29;59.30;101140.81;5026491;28;20048;-54
2023/12/02 06:15:56;;;;;;;5.90;3.88;;;;;;;9.29;59.40;101153.22;5030690;28;20037;-54
2023/12/02 06:18:22;;;;;;;5.45;4.00;;;;;;;9.29;59.15;101151.44;5027871;28;20045;-55
2023/12/02 06:20:47;;;;;;;5.53;4.00;;;;;;;9.29;59.32;101145.25;5028526;28;20030;-55
2023/12/02 06:23:12;;;;;;;4.70;3.70;;;;;;;9.29;59.32;101155.88;5027731;28;20033;-55
2023/12/02 06:25:38;;;;;;;4.57;3.53;;;;;;;9.28;59.13;101160.34;5027890;28;20029;-55
2023/12/02 06:28:04;;;;;;;5.13;3.63;;;;;;;9.28;59.03;101160.34;5029748;28;20037;-55
2023/12/02 06:30:29;;;;;;;4.93;3.47;;;;;;;9.28;59.14;101155.03;5027622;28;20484;-55
2023/12/02 06:32:55;;;;;;;5.35;4.28;;;;;;;9.28;59.25;101167.47;5027958;28;20118;-55
2023/12/02 06:35:20;;;;;;;5.00;3.65;;;;;;;9.27;59.15;101173.69;5028765;28;20089;-55
2023/12/02 06:37:45;;;;;;;5.00;3.63;;;;;;;9.29;59.10;101177.13;5029433;28;20423;-55
2023/12/02 06:40:11;;;;;;;5.00;3.53;;;;;;;9.27;59.11;101171.03;5032765;28;20399;-55
2023/12/02 06:42:37;;;;;;;4.95;3.65;;;;;;;9.27;59.01;101169.25;5028403;28;20120;-55
2023/12/02 06:45:03;;;;;;;5.28;4.13;;;;;;;9.26;59.18;101169.34;5027463;28;20030;-55
2023/12/02 06:47:29;;;;;;;4.60;3.42;;;;;;;9.26;59.02;101178.16;5034524;28;20040;-55
2023/12/02 06:49:54;;;;;;;5.05;3.70;;;;;;;9.26;59.09;101178.16;5030914;28;20431;-55
2023/12/02 06:52:19;;;;;;;4.80;3.83;;;;;;;9.26;59.24;101178.16;5031783;28;20092;-55
2023/12/02 06:54:45;;;;;;;4.40;3.63;;;;;;;9.26;59.09;101178.16;5031883;28;20103;-55
2023/12/02 06:57:10;;;;;;;5.97;4.05;;;;;;;9.25;58.97;101189.72;5034641;28;20044;-55
2023/12/02 06:59:37;;;;;;;5.90;4.15;;;;;;;9.25;58.89;101197.69;5034270;28;20045;-55
2023/12/02 07:02:02;;;;;;;5.55;4.20;;;;;;;9.25;59.04;101200.34;5031995;28;20076;-55
2023/12/02 07:04:28;;;;;;;6.53;4.60;;;;;;;9.25;58.99;101205.66;5030839;28;20492;-54
2023/12/02 07:06:53;;;;;;;6.53;4.40;;;;;;;9.26;58.91;101203.88;5031730;28;20048;-55
2023/12/02 07:09:18;;;;;;;6.05;3.95;;;;;;;9.25;59.16;101205.66;5034635;28;20041;-55
2023/12/02 07:11:44;;;;;;;5.28;3.83;;;;;;;9.25;59.03;101208.31;5034414;28;20033;-55
2023/12/02 07:14:09;;;;;;;6.00;4.25;;;;;;;9.25;58.81;101212.78;5028466;28;20044;-55
2023/12/02 07:16:34;;;;;;;5.65;4.22;;;;;;;9.25;59.06;101218.09;5034129;28;20033;-55
2023/12/02 07:19:00;;;;;;;5.03;4.00;;;;;;;9.25;58.96;101212.78;5030987;28;20038;-54
2023/12/02 07:21:25;;;;;;;5.97;3.80;;;;;;;9.24;58.91;101219.91;5031448;28;20038;-54
2023/12/02 07:23:50;;;;;;;6.22;4.47;;;;;;;9.24;59.00;101219.91;5031729;28;20037;-55
2023/12/02 07:26:16;;;;;;;6.93;4.20;;;;;;;9.24;58.88;101222.56;5031660;28;20116;-55
2023/12/02 07:28:41;;;;;;;6.00;4.43;;;;;;;9.23;59.00;101218.16;5031870;28;20040;-55
2023/12/02 07:31:14;;;;;;;4.78;3.70;;;;;;;9.23;58.92;101220.81;5033034;28;20056;-55
2023/12/02 07:33:39;;;;;;;5.18;4.10;;;;;;;9.23;59.12;101238.56;5027256;28;20087;-55
2023/12/02 07:36:05;;;;;;;5.90;4.28;;;;;;;9.23;58.67;101231.44;5036931;28;20112;-55
2023/12/02 07:38:30;;;;;;;5.85;4.35;;;;;;;9.23;58.87;101230.59;5029933;28;20038;-54
2023/12/02 07:40:55;;;;;;;6.45;4.10;;;;;;;9.22;58.92;101235.06;5031155;28;20045;-54
2023/12/02 07:43:21;;;;;;;5.60;4.10;;;;;;;9.22;58.78;101240.38;5027262;28;20161;-55
2023/12/02 07:45:46;;;;;;;5.60;4.20;;;;;;;9.20;58.67;101232.47;5032583;28;20045;-55
2023/12/02 07:48:11;;;;;;;5.07;4.15;;;;;;;9.22;58.86;101244.84;5047907;28;20029;-55
2023/12/02 07:50:38;;;;;;;5.38;3.90;;;;;;;9.20;58.80;101253.72;5030865;28;20053;-55
2023/12/02 07:53:03;;;;;;;5.80;3.97;;;;;;;9.20;58.66;101255.53;5032846;28;20111;-54
2023/12/02 07:55:28;;;;;;;5.43;4.38;;;;;;;9.21;58.62;101259.91;5032818;28;20068;-55
2023/12/02 07:57:54;;;;;;;5.60;3.75;;;;;;;9.21;58.74;101259.91;5030272;28;20045;-55
2023/12/02 08:00:19;;;;;;;5.55;4.07;;;;;;;9.20;58.84;101248.41;5032602;28;20036;-55
2023/12/02 08:02:45;;;;;;;5.88;4.53;;;;;;;9.20;58.47;101250.22;5030095;28;20551;-54
2023/12/02 08:05:10;;;;;;;6.10;4.00;;;;;;;9.19;58.62;101265.31;5029605;28;20048;-55
2023/12/02 08:07:35;;;;;;;6.25;4.47;;;;;;;9.19;58.75;101265.31;5030003;28;20476;-55
2023/12/02 08:10:01;;;;;;;6.03;4.38;;;;;;;9.19;58.63;101272.41;5029457;28;20025;-55
2023/12/02 08:12:26;;;;;;;6.97;4.55;;;;;;;9.19;58.53;101272.41;5029894;28;20112;-55
2023/12/02 08:14:52;;;;;;;5.95;4.50;;;;;;;9.19;58.52;101275.06;5026913;28;20033;-53
2023/12/02 08:17:17;;;;;;;5.47;3.92;;;;;;;9.19;58.88;101281.25;5033181;28;20037;-55
2023/12/02 08:19:42;;;;;;;6.45;4.18;;;;;;;9.19;58.59;101280.38;5029493;28;20087;-55
2023/12/02 08:22:08;;;;;;;6.25;4.25;;;;;;;9.19;58.55;101280.38;5029859;28;20037;-55
2023/12/02 08:24:35;;;;;;;6.60;4.43;;;;;;;9.19;58.87;101288.34;5030084;28;20089;-55
2023/12/02 08:27:01;;;;;;;7.03;4.57;;;;;;;9.18;58.60;101294.63;5028782;28;20029;-55
2023/12/02 08:29:26;;;;;;;7.57;4.97;;;;;;;9.18;58.64;101298.13;5029671;28;20108;-55
2023/12/02 08:31:52;;;;;;;5.53;3.92;;;;;;;9.19;58.53;101304.28;5029589;28;20104;-55
2023/12/02 08:34:17;;;;;;;5.95;4.43;;;;;;;9.18;58.35;101307.91;5030800;28;20044;-55
2023/12/02 08:36:43;;;;;;;5.93;4.60;;;;;;;9.18;58.74;101310.56;5029623;28;20025;-55
2023/12/02 08:39:09;;;;;;;5.80;4.03;;;;;;;9.17;58.61;101306.16;5027160;28;20030;-55
2023/12/02 08:41:36;;;;;;;6.72;4.35;;;;;;;9.17;58.46;101306.16;5031197;28;20083;-55
2023/12/02 08:44:01;;;;;;;5.13;4.00;;;;;;;9.18;58.31;101315.88;5029471;28;20372;-55
2023/12/02 08:46:27;;;;;;;7.25;5.03;;;;;;;9.18;58.42;101318.53;5029733;28;20026;-55
2023/12/02 08:48:52;;;;;;;7.10;4.57;;;;;;;9.18;58.22;101315.88;5029710;28;20108;-55
2023/12/02 08:51:17;;;;;;;7.60;5.03;;;;;;;9.18;58.51;101323.84;5027721;28;20175;-55
2023/12/02 08:53:43;;;;;;;6.43;4.47;;;;;;;9.18;58.47;101321.19;5028963;28;20037;-55
2023/12/02 08:56:08;;;;;;;6.50;4.65;;;;;;;9.17;58.18;101324.75;5030767;28;20028;-55
2023/12/02 08:58:34;;;;;;;6.07;4.78;;;;;;;9.18;58.41;101323.84;5027537;28;20487;-55
2023/12/02 09:01:00;;;;;;;7.40;4.72;;;;;;;9.17;58.39;101322.09;5028712;28;20040;-55
2023/12/02 09:03:25;;;;;;;6.15;4.47;;;;;;;9.16;58.25;101309.78;5030519;28;20136;-55
2023/12/02 09:05:55;;;;;;;7.13;5.15;;;;;;;9.16;58.25;101315.09;5029142;28;20025;-55
2023/12/02 09:08:21;;;;;;;7.88;5.22;;;;;;;9.16;58.22;101320.41;5027758;28;20073;-55
2023/12/02 09:10:46;;;;;;;7.03;4.53;;;;;;;9.15;58.26;101322.16;5029791;28;20440;-55
2023/12/02 09:13:33;;;;;;;8.07;5.38;;;;;;;9.17;58.37;101338.88;5030315;28;20029;-55
2023/12/02 09:16:00;;;;;;;7.70;5.30;;;;;;;9.16;58.19;101331.03;5029018;28;20029;-55
2023/12/02 09:18:35;;;;;;;7.70;5.32;;;;;;;9.16;58.24;101326.56;5029632;28;20067;-55
2023/12/02 09:21:01;;;;;;;6.25;4.50;;;;;;;9.16;58.05;101336.34;5030329;28;20033;-55
2023/12/02 09:23:29;;;;;;;8.18;5.50;;;;;;;9.15;58.05;101340.78;5028485;28;20037;-55
2023/12/02 09:26:01;;;;;;;7.50;4.90;;;;;;;9.15;58.11;101337.25;5030666;28;20037;-55
2023/12/02 09:28:29;;;;;;;7.50;5.25;;;;;;;9.15;58.03;101329.28;5028941;28;20375;-55
2023/12/02 09:31:13;;;;;;;8.13;5.07;;;;;;;9.17;58.46;101340.69;5028804;28;20037;-55
2023/12/02 09:33:39;;;;;;;8.65;5.65;;;;;;;9.15;58.09;101337.25;5029736;28;20034;-55
2023/12/02 09:36:05;;;;;;;7.07;4.85;;;;;;;9.15;58.03;101345.22;5028777;28;20034;-55
2023/12/02 09:38:32;;;;;;;6.43;4.95;;;;;;;9.15;57.93;101350.53;5030225;28;20511;-55
2023/12/02 09:41:09;;;;;;;7.43;5.15;;;;;;;9.15;58.16;101353.19;5030852;28;20033;-55
2023/12/02 09:43:39;;;;;;;7.70;5.03;;;;;;;9.14;57.99;101348.84;5028445;28;20025;-55
2023/12/02 09:46:33;;;;;;;8.75;5.28;;;;;;;9.16;58.30;101353.13;5029946;28;20029;-55
2023/12/02 09:49:27;;;;;;;8.65;5.13;;;;;;;9.15;58.21;101354.06;5026545;28;20104;-55
2023/12/02 09:52:10;;;;;;;7.45;5.43;;;;;;;9.16;58.10;101358.44;5023513;28;20376;-54
2023/12/02 09:54:48;;;;;;;8.82;5.63;;;;;;;9.16;57.95;101355.78;5026171;28;20426;-55
2023/12/02 09:57:47;;;;;;;8.15;5.43;;;;;;;9.17;58.31;101348.66;5024400;28;20028;-55
2023/12/02 10:00:29;;;;;;;8.43;5.50;;;;;;;9.16;58.03;101352.28;5026631;28;20034;-55
2023/12/02 10:03:13;;;;;;;;;;;;;;;9.22;58.39;101346.66;5025891;28;20025;-56
2023/12/02 10:05:58;;;;;;;6.80;4.90;;;;;;;9.17;58.13;101349.53;5029209;28;19931;-56
2023/12/02 10:09:00;;;;;;;8.52;5.38;;;;;;;9.17;58.19;101360.16;5028020;28;20039;-56
2023/12/02 10:12:06;;;;;;;7.32;5.32;;;;;;;9.17;58.27;101359.28;5027766;28;20376;-56
2023/12/02 10:14:33;;;;;;;8.35;5.70;;;;;;;9.15;57.89;101356.72;5026741;28;20041;-56
2023/12/02 10:17:02;;;;;;;9.07;5.85;;;;;;;9.14;57.81;101355.00;5022512;28;20025;-56
2023/12/02 10:20:00;;;;;;;7.95;5.10;;;;;;;9.17;58.02;101361.94;5025991;28;20091;-56
2023/12/02 10:22:28;;;;;;;9.40;5.75;;;;;;;9.15;57.67;101362.03;5034414;28;20033;-56
2023/12/02 10:25:02;;;;;;;8.35;5.55;;;;;;;9.14;57.79;101359.47;5034267;28;20043;-56
2023/12/02 10:27:30;;;;;;;9.07;5.82;;;;;;;9.13;57.84;101357.72;5026955;28;20131;-56
2023/12/02 10:30:21;;;;;;;8.00;5.50;;;;;;;9.12;57.64;101362.19;5031481;28;20041;-56
2023/12/02 10:33:10;;;;;;;8.40;5.53;;;;;;;9.15;57.96;101358.50;5032593;28;20064;-56
2023/12/02 10:35:40;;;;;;;7.82;5.15;;;;;;;9.12;57.71;101367.50;5044555;28;20029;-56
2023/12/02 10:38:27;;;;;;;9.55;6.07;;;;;;;9.14;58.04;101364.78;5032427;28;20029;-56
2023/12/02 10:41:30;;;;;;;8.38;5.47;;;;;;;9.14;57.89;101364.78;5032837;28;20029;-56
2023/12/02 10:43:58;;;;;;;15.57;6.65;;;;;;;9.14;60.38;101370.09;5029673;28;20154;-55
2023/12/02 10:46:25;;;;;;;21.20;6.78;;;;;;;9.15;61.99;101366.47;5029514;28;20029;-54
2023/12/02 10:48:54;;;;;;;14.23;7.13;;;;;;;9.16;62.69;101365.56;5030653;28;20044;-54
2023/12/02 10:51:22;;;;;;;19.23;6.43;;;;;;;9.17;63.03;101359.28;5030472;28;20036;-55
2023/12/02 10:53:49;;;;;;;15.63;6.20;;;;;;;9.18;62.86;101366.34;5029053;28;20037;-55
2023/12/02 10:56:21;;;;;;;22.25;6.40;;;;;;;9.18;63.06;101367.19;5031217;28;20030;-54
2023/12/02 10:58:48;;;;;;;;;;;;;;;9.23;61.49;101366.94;5028372;28;20029;-54
2023/12/02 11:01:23;;;;;;;17.67;7.10;;;;;;;9.20;63.22;101367.97;5029543;28;20349;-55
2023/12/02 11:03:57;;;;;;;18.73;7.38;;;;;;;9.20;63.45;101370.63;5029560;28;20052;-54
2023/12/02 11:06:31;;;;;;;19.17;6.93;;;;;;;9.22;63.33;101359.94;5030714;28;20037;-55
2023/12/02 11:09:11;;;;;;;22.33;6.43;;;;;;;9.21;63.58;101363.50;5026082;28;20459;-54
2023/12/02 11:11:57;;;;;;;15.38;6.43;;;;;;;9.21;63.60;101360.84;5030864;28;20029;-54
2023/12/02 11:14:24;;;;;;;13.43;6.22;;;;;;;9.22;63.59;101367.91;5029596;28;20434;-54
2023/12/02 11:17:28;;;;;;;14.43;6.25;;;;;;;9.23;63.34;101369.59;5032948;28;20095;-55
2023/12/02 11:19:56;;;;;;;16.60;6.28;;;;;;;9.21;63.81;101366.16;5029841;28;20101;-56
2023/12/02 11:22:46;;;;;;;14.55;6.10;;;;;;;9.23;63.48;101364.28;5030330;28;20117;-50
2023/12/02 11:25:41;;;;;;;15.05;6.63;;;;;;;9.23;63.77;101364.28;5027949;28;20486;-52
2023/12/02 11:28:29;;;;;;;18.00;6.38;;;;;;;9.26;63.75;101363.31;5028169;28;20164;-51
2023/12/02 11:31:01;;;;;;;18.65;6.65;;;;;;;9.25;64.25;101366.88;5028861;28;20471;-50
2023/12/02 11:34:12;;;;;;;11.65;6.20;;;;;;;9.26;63.90;101364.16;5030014;28;20565;-50
2023/12/02 11:37:22;;;;;;;16.80;5.63;;;;;;;9.26;64.19;101372.13;5030468;28;20036;-51
2023/12/02 11:40:13;;;;;;;18.42;6.40;;;;;;;9.25;64.44;101367.72;5019999;28;20124;-52